sensor_id;sensor_type;location;lat;lon;timestamp;P1;durP1;ratioP1;P2;durP2;ratioP2
46589;SDS011;32313;48.722;9.362;2022-11-20T00:01:21;12.83;;;11.63;;
46589;SDS011;32313;48.722;9.362;2022-11-20T00:03:50;14.37;;;12.87;;
46589;SDS011;32313;48.722;9.362;2022-11-20T00:06:17;14.20;;;12.93;;
46589;SDS011;32313;48.722;9.362;2022-11-20T00:08:43;14.83;;;13.63;;
46589;SDS011;32313;48.722;9.362;2022-11-20T00:11:14;17.63;;;15.27;;
46589;SDS011;32313;48.722;9.362;2022-11-20T00:13:45;17.50;;;15.70;;
46589;SDS011;32313;48.722;9.362;2022-11-20T00:16:13;16.40;;;14.80;;
46589;SDS011;32313;48.722;9.362;2022-11-20T00:18:39;16.43;;;14.80;;
46589;SDS011;32313;48.722;9.362;2022-11-20T00:21:09;17.73;;;15.87;;
46589;SDS011;32313;48.722;9.362;2022-11-20T00:23:37;16.93;;;15.30;;
46589;SDS011;32313;48.722;9.362;2022-11-20T00:26:03;22.97;;;18.00;;
46589;SDS011;32313;48.722;9.362;2022-11-20T00:28:30;18.07;;;16.37;;
46589;SDS011;32313;48.722;9.362;2022-11-20T00:33:28;19.03;;;17.03;;
46589;SDS011;32313;48.722;9.362;2022-11-20T00:35:58;19.70;;;17.70;;
46589;SDS011;32313;48.722;9.362;2022-11-20T00:38:25;23.70;;;20.87;;
46589;SDS011;32313;48.722;9.362;2022-11-20T00:40:57;20.53;;;18.43;;
46589;SDS011;32313;48.722;9.362;2022-11-20T00:43:23;22.27;;;20.03;;
46589;SDS011;32313;48.722;9.362;2022-11-20T00:45:50;20.23;;;18.10;;
46589;SDS011;32313;48.722;9.362;2022-11-20T00:48:15;20.90;;;18.80;;
46589;SDS011;32313;48.722;9.362;2022-11-20T00:50:41;20.87;;;18.77;;
46589;SDS011;32313;48.722;9.362;2022-11-20T00:53:07;20.53;;;18.27;;
46589;SDS011;32313;48.722;9.362;2022-11-20T00:55:32;22.60;;;18.23;;
46589;SDS011;32313;48.722;9.362;2022-11-20T00:57:58;18.33;;;16.60;;
46589;SDS011;32313;48.722;9.362;2022-11-20T01:00:24;19.83;;;17.83;;
46589;SDS011;32313;48.722;9.362;2022-11-20T01:02:49;18.77;;;16.87;;
46589;SDS011;32313;48.722;9.362;2022-11-20T01:05:15;20.03;;;17.00;;
46589;SDS011;32313;48.722;9.362;2022-11-20T01:07:41;21.23;;;19.00;;
46589;SDS011;32313;48.722;9.362;2022-11-20T01:10:06;19.97;;;17.87;;
46589;SDS011;32313;48.722;9.362;2022-11-20T01:12:32;19.67;;;17.67;;
46589;SDS011;32313;48.722;9.362;2022-11-20T01:14:58;21.07;;;18.73;;
46589;SDS011;32313;48.722;9.362;2022-11-20T01:17:23;20.20;;;17.90;;
46589;SDS011;32313;48.722;9.362;2022-11-20T01:19:49;21.63;;;18.87;;
46589;SDS011;32313;48.722;9.362;2022-11-20T01:22:15;23.10;;;20.67;;
46589;SDS011;32313;48.722;9.362;2022-11-20T01:24:41;20.17;;;18.07;;
46589;SDS011;32313;48.722;9.362;2022-11-20T01:27:08;21.67;;;19.57;;
46589;SDS011;32313;48.722;9.362;2022-11-20T01:29:34;21.03;;;18.30;;
46589;SDS011;32313;48.722;9.362;2022-11-20T01:31:59;24.57;;;22.03;;
46589;SDS011;32313;48.722;9.362;2022-11-20T01:34:25;23.67;;;20.13;;
46589;SDS011;32313;48.722;9.362;2022-11-20T01:36:51;24.10;;;20.27;;
46589;SDS011;32313;48.722;9.362;2022-11-20T01:39:19;25.33;;;20.23;;
46589;SDS011;32313;48.722;9.362;2022-11-20T01:41:47;24.40;;;18.90;;
46589;SDS011;32313;48.722;9.362;2022-11-20T01:47:07;21.80;;;18.40;;
46589;SDS011;32313;48.722;9.362;2022-11-20T01:50:10;21.77;;;19.47;;
46589;SDS011;32313;48.722;9.362;2022-11-20T01:52:53;20.67;;;17.83;;
46589;SDS011;32313;48.722;9.362;2022-11-20T01:55:27;16.97;;;15.20;;
46589;SDS011;32313;48.722;9.362;2022-11-20T01:57:59;15.23;;;13.83;;
46589;SDS011;32313;48.722;9.362;2022-11-20T02:00:26;16.67;;;15.03;;
46589;SDS011;32313;48.722;9.362;2022-11-20T02:03:00;17.90;;;15.60;;
46589;SDS011;32313;48.722;9.362;2022-11-20T02:08:04;19.17;;;17.20;;
46589;SDS011;32313;48.722;9.362;2022-11-20T02:10:31;20.87;;;18.60;;
46589;SDS011;32313;48.722;9.362;2022-11-20T02:12:57;25.30;;;19.20;;
46589;SDS011;32313;48.722;9.362;2022-11-20T02:15:41;24.83;;;20.77;;
46589;SDS011;32313;48.722;9.362;2022-11-20T02:18:07;24.07;;;19.77;;
46589;SDS011;32313;48.722;9.362;2022-11-20T02:20:35;22.10;;;18.40;;
46589;SDS011;32313;48.722;9.362;2022-11-20T02:23:03;17.53;;;15.77;;
46589;SDS011;32313;48.722;9.362;2022-11-20T02:25:33;17.07;;;15.47;;
46589;SDS011;32313;48.722;9.362;2022-11-20T02:28:01;17.37;;;15.53;;
46589;SDS011;32313;48.722;9.362;2022-11-20T02:30:28;17.07;;;15.27;;
46589;SDS011;32313;48.722;9.362;2022-11-20T02:32:53;16.37;;;14.67;;
46589;SDS011;32313;48.722;9.362;2022-11-20T02:37:45;15.60;;;14.00;;
46589;SDS011;32313;48.722;9.362;2022-11-20T02:40:13;15.77;;;14.37;;
46589;SDS011;32313;48.722;9.362;2022-11-20T02:42:39;16.60;;;15.00;;
46589;SDS011;32313;48.722;9.362;2022-11-20T02:45:05;17.07;;;15.33;;
46589;SDS011;32313;48.722;9.362;2022-11-20T02:47:31;18.10;;;16.27;;
46589;SDS011;32313;48.722;9.362;2022-11-20T02:49:57;17.73;;;15.93;;
46589;SDS011;32313;48.722;9.362;2022-11-20T02:52:23;17.40;;;15.70;;
46589;SDS011;32313;48.722;9.362;2022-11-20T02:54:50;18.77;;;16.80;;
46589;SDS011;32313;48.722;9.362;2022-11-20T02:57:15;19.63;;;16.87;;
46589;SDS011;32313;48.722;9.362;2022-11-20T02:59:41;16.87;;;15.07;;
46589;SDS011;32313;48.722;9.362;2022-11-20T03:02:07;15.67;;;14.17;;
46589;SDS011;32313;48.722;9.362;2022-11-20T03:04:32;15.50;;;14.10;;
46589;SDS011;32313;48.722;9.362;2022-11-20T03:06:58;16.20;;;14.60;;
46589;SDS011;32313;48.722;9.362;2022-11-20T03:09:24;15.83;;;14.33;;
46589;SDS011;32313;48.722;9.362;2022-11-20T03:11:49;17.20;;;15.27;;
46589;SDS011;32313;48.722;9.362;2022-11-20T03:14:15;15.60;;;14.10;;
46589;SDS011;32313;48.722;9.362;2022-11-20T03:16:41;16.43;;;14.87;;
46589;SDS011;32313;48.722;9.362;2022-11-20T03:19:06;16.17;;;14.53;;
46589;SDS011;32313;48.722;9.362;2022-11-20T03:21:33;16.83;;;15.00;;
46589;SDS011;32313;48.722;9.362;2022-11-20T03:23:59;16.20;;;14.47;;
46589;SDS011;32313;48.722;9.362;2022-11-20T03:26:25;17.00;;;15.30;;
46589;SDS011;32313;48.722;9.362;2022-11-20T03:28:53;17.00;;;15.40;;
46589;SDS011;32313;48.722;9.362;2022-11-20T03:31:21;17.27;;;15.00;;
46589;SDS011;32313;48.722;9.362;2022-11-20T03:33:49;16.10;;;14.50;;
46589;SDS011;32313;48.722;9.362;2022-11-20T03:36:15;17.67;;;15.43;;
46589;SDS011;32313;48.722;9.362;2022-11-20T03:38:42;17.67;;;15.83;;
46589;SDS011;32313;48.722;9.362;2022-11-20T03:41:09;17.00;;;15.30;;
46589;SDS011;32313;48.722;9.362;2022-11-20T03:43:37;17.77;;;16.17;;
46589;SDS011;32313;48.722;9.362;2022-11-20T03:46:03;16.07;;;14.47;;
46589;SDS011;32313;48.722;9.362;2022-11-20T03:48:29;15.80;;;14.30;;
46589;SDS011;32313;48.722;9.362;2022-11-20T03:51:12;20.70;;;16.60;;
46589;SDS011;32313;48.722;9.362;2022-11-20T03:53:39;16.60;;;15.00;;
46589;SDS011;32313;48.722;9.362;2022-11-20T03:56:06;15.83;;;14.37;;
46589;SDS011;32313;48.722;9.362;2022-11-20T03:58:33;16.43;;;14.80;;
46589;SDS011;32313;48.722;9.362;2022-11-20T04:01:05;16.47;;;14.93;;
46589;SDS011;32313;48.722;9.362;2022-11-20T04:03:37;15.20;;;13.60;;
46589;SDS011;32313;48.722;9.362;2022-11-20T04:06:11;16.53;;;14.73;;
46589;SDS011;32313;48.722;9.362;2022-11-20T04:08:38;16.00;;;14.40;;
46589;SDS011;32313;48.722;9.362;2022-11-20T04:13:58;13.30;;;12.10;;
46589;SDS011;32313;48.722;9.362;2022-11-20T04:16:26;17.20;;;13.20;;
46589;SDS011;32313;48.722;9.362;2022-11-20T04:18:54;11.83;;;10.83;;
46589;SDS011;32313;48.722;9.362;2022-11-20T04:21:21;12.90;;;11.70;;
46589;SDS011;32313;48.722;9.362;2022-11-20T04:23:48;12.07;;;11.07;;
46589;SDS011;32313;48.722;9.362;2022-11-20T04:26:15;12.33;;;11.23;;
46589;SDS011;32313;48.722;9.362;2022-11-20T04:28:41;10.07;;;9.30;;
46589;SDS011;32313;48.722;9.362;2022-11-20T04:33:39;10.87;;;9.97;;
46589;SDS011;32313;48.722;9.362;2022-11-20T04:36:15;9.67;;;8.77;;
46589;SDS011;32313;48.722;9.362;2022-11-20T04:38:43;9.97;;;9.23;;
46589;SDS011;32313;48.722;9.362;2022-11-20T04:41:16;9.97;;;9.27;;
46589;SDS011;32313;48.722;9.362;2022-11-20T04:43:46;8.43;;;7.80;;
46589;SDS011;32313;48.722;9.362;2022-11-20T04:46:13;9.37;;;8.57;;
46589;SDS011;32313;48.722;9.362;2022-11-20T04:48:39;8.47;;;7.97;;
46589;SDS011;32313;48.722;9.362;2022-11-20T04:51:05;8.63;;;8.03;;
46589;SDS011;32313;48.722;9.362;2022-11-20T04:53:31;8.37;;;7.67;;
46589;SDS011;32313;48.722;9.362;2022-11-20T04:56:01;8.97;;;8.33;;
46589;SDS011;32313;48.722;9.362;2022-11-20T04:58:29;10.13;;;9.33;;
46589;SDS011;32313;48.722;9.362;2022-11-20T05:01:37;9.67;;;8.87;;
46589;SDS011;32313;48.722;9.362;2022-11-20T05:03:45;8.70;;;8.10;;
46589;SDS011;32313;48.722;9.362;2022-11-20T05:06:15;9.57;;;8.77;;
46589;SDS011;32313;48.722;9.362;2022-11-20T05:08:41;9.60;;;9.00;;
46589;SDS011;32313;48.722;9.362;2022-11-20T05:11:12;9.53;;;8.80;;
46589;SDS011;32313;48.722;9.362;2022-11-20T05:13:39;10.27;;;9.57;;
46589;SDS011;32313;48.722;9.362;2022-11-20T05:16:09;9.93;;;9.23;;
46589;SDS011;32313;48.722;9.362;2022-11-20T05:18:36;9.90;;;9.00;;
46589;SDS011;32313;48.722;9.362;2022-11-20T05:21:03;10.73;;;9.93;;
46589;SDS011;32313;48.722;9.362;2022-11-20T05:23:30;8.50;;;7.90;;
46589;SDS011;32313;48.722;9.362;2022-11-20T05:25:56;8.80;;;8.10;;
46589;SDS011;32313;48.722;9.362;2022-11-20T05:28:23;9.00;;;8.20;;
46589;SDS011;32313;48.722;9.362;2022-11-20T05:30:49;8.93;;;8.33;;
46589;SDS011;32313;48.722;9.362;2022-11-20T05:33:15;9.03;;;8.43;;
46589;SDS011;32313;48.722;9.362;2022-11-20T05:35:41;8.27;;;7.67;;
46589;SDS011;32313;48.722;9.362;2022-11-20T05:38:07;7.93;;;7.27;;
46589;SDS011;32313;48.722;9.362;2022-11-20T05:40:32;7.57;;;7.07;;
46589;SDS011;32313;48.722;9.362;2022-11-20T05:42:59;7.47;;;6.97;;
46589;SDS011;32313;48.722;9.362;2022-11-20T05:45:25;7.47;;;6.97;;
46589;SDS011;32313;48.722;9.362;2022-11-20T05:47:51;6.90;;;6.50;;
46589;SDS011;32313;48.722;9.362;2022-11-20T05:50:16;8.47;;;7.87;;
46589;SDS011;32313;48.722;9.362;2022-11-20T05:52:42;6.93;;;6.43;;
46589;SDS011;32313;48.722;9.362;2022-11-20T05:55:07;6.93;;;6.53;;
46589;SDS011;32313;48.722;9.362;2022-11-20T05:57:34;7.97;;;7.37;;
46589;SDS011;32313;48.722;9.362;2022-11-20T05:59:59;6.80;;;6.30;;
46589;SDS011;32313;48.722;9.362;2022-11-20T06:02:25;6.87;;;6.37;;
46589;SDS011;32313;48.722;9.362;2022-11-20T06:04:51;7.17;;;6.70;;
46589;SDS011;32313;48.722;9.362;2022-11-20T06:07:16;6.80;;;6.30;;
46589;SDS011;32313;48.722;9.362;2022-11-20T06:09:42;7.07;;;6.57;;
46589;SDS011;32313;48.722;9.362;2022-11-20T06:12:08;6.63;;;6.23;;
46589;SDS011;32313;48.722;9.362;2022-11-20T06:14:33;6.83;;;6.43;;
46589;SDS011;32313;48.722;9.362;2022-11-20T06:16:59;7.03;;;6.53;;
46589;SDS011;32313;48.722;9.362;2022-11-20T06:19:25;6.60;;;6.20;;
46589;SDS011;32313;48.722;9.362;2022-11-20T06:21:51;7.43;;;6.90;;
46589;SDS011;32313;48.722;9.362;2022-11-20T06:24:16;7.37;;;6.87;;
46589;SDS011;32313;48.722;9.362;2022-11-20T06:26:42;6.50;;;6.10;;
46589;SDS011;32313;48.722;9.362;2022-11-20T06:29:09;6.60;;;6.10;;
46589;SDS011;32313;48.722;9.362;2022-11-20T06:31:35;7.83;;;7.33;;
46589;SDS011;32313;48.722;9.362;2022-11-20T06:34:05;6.13;;;5.73;;
46589;SDS011;32313;48.722;9.362;2022-11-20T06:36:31;6.93;;;6.43;;
46589;SDS011;32313;48.722;9.362;2022-11-20T06:38:57;6.40;;;5.90;;
46589;SDS011;32313;48.722;9.362;2022-11-20T06:41:23;7.47;;;6.67;;
46589;SDS011;32313;48.722;9.362;2022-11-20T06:43:50;6.90;;;6.40;;
46589;SDS011;32313;48.722;9.362;2022-11-20T06:46:17;7.00;;;6.60;;
46589;SDS011;32313;48.722;9.362;2022-11-20T06:48:44;7.13;;;6.63;;
46589;SDS011;32313;48.722;9.362;2022-11-20T06:51:10;6.67;;;6.27;;
46589;SDS011;32313;48.722;9.362;2022-11-20T06:53:36;7.03;;;6.53;;
46589;SDS011;32313;48.722;9.362;2022-11-20T06:56:03;6.93;;;6.50;;
46589;SDS011;32313;48.722;9.362;2022-11-20T06:58:30;7.33;;;6.77;;
46589;SDS011;32313;48.722;9.362;2022-11-20T07:01:00;6.27;;;5.87;;
46589;SDS011;32313;48.722;9.362;2022-11-20T07:03:26;6.43;;;6.03;;
46589;SDS011;32313;48.722;9.362;2022-11-20T07:05:55;6.07;;;5.67;;
46589;SDS011;32313;48.722;9.362;2022-11-20T07:08:23;6.87;;;6.47;;
46589;SDS011;32313;48.722;9.362;2022-11-20T07:10:49;6.27;;;5.87;;
46589;SDS011;32313;48.722;9.362;2022-11-20T07:13:15;6.57;;;6.07;;
46589;SDS011;32313;48.722;9.362;2022-11-20T07:15:41;6.93;;;6.53;;
46589;SDS011;32313;48.722;9.362;2022-11-20T07:18:10;6.50;;;6.00;;
46589;SDS011;32313;48.722;9.362;2022-11-20T07:20:36;6.90;;;6.20;;
46589;SDS011;32313;48.722;9.362;2022-11-20T07:23:01;5.90;;;5.60;;
46589;SDS011;32313;48.722;9.362;2022-11-20T07:25:27;7.10;;;6.70;;
46589;SDS011;32313;48.722;9.362;2022-11-20T07:27:57;7.07;;;6.60;;
46589;SDS011;32313;48.722;9.362;2022-11-20T07:30:23;6.50;;;6.00;;
46589;SDS011;32313;48.722;9.362;2022-11-20T07:32:53;6.10;;;5.70;;
46589;SDS011;32313;48.722;9.362;2022-11-20T07:35:20;7.37;;;6.80;;
46589;SDS011;32313;48.722;9.362;2022-11-20T07:37:46;6.43;;;5.87;;
46589;SDS011;32313;48.722;9.362;2022-11-20T07:40:13;6.80;;;6.40;;
46589;SDS011;32313;48.722;9.362;2022-11-20T07:42:47;6.87;;;6.43;;
46589;SDS011;32313;48.722;9.362;2022-11-20T07:45:17;6.20;;;5.80;;
46589;SDS011;32313;48.722;9.362;2022-11-20T07:47:44;7.43;;;6.90;;
46589;SDS011;32313;48.722;9.362;2022-11-20T07:50:10;7.10;;;6.00;;
46589;SDS011;32313;48.722;9.362;2022-11-20T07:52:36;6.53;;;6.07;;
46589;SDS011;32313;48.722;9.362;2022-11-20T07:55:01;6.17;;;5.67;;
46589;SDS011;32313;48.722;9.362;2022-11-20T07:57:27;6.33;;;5.80;;
46589;SDS011;32313;48.722;9.362;2022-11-20T07:59:53;5.93;;;5.53;;
46589;SDS011;32313;48.722;9.362;2022-11-20T08:02:19;6.90;;;6.40;;
46589;SDS011;32313;48.722;9.362;2022-11-20T08:04:44;5.67;;;5.23;;
46589;SDS011;32313;48.722;9.362;2022-11-20T08:07:10;6.47;;;5.93;;
46589;SDS011;32313;48.722;9.362;2022-11-20T08:09:35;5.43;;;5.13;;
46589;SDS011;32313;48.722;9.362;2022-11-20T08:12:01;6.30;;;5.90;;
46589;SDS011;32313;48.722;9.362;2022-11-20T08:14:45;5.70;;;5.30;;
46589;SDS011;32313;48.722;9.362;2022-11-20T08:17:11;5.07;;;4.67;;
46589;SDS011;32313;48.722;9.362;2022-11-20T08:19:37;6.20;;;5.70;;
46589;SDS011;32313;48.722;9.362;2022-11-20T08:22:03;5.73;;;5.43;;
46589;SDS011;32313;48.722;9.362;2022-11-20T08:24:28;5.77;;;5.37;;
46589;SDS011;32313;48.722;9.362;2022-11-20T08:26:56;5.93;;;5.43;;
46589;SDS011;32313;48.722;9.362;2022-11-20T08:29:23;5.67;;;5.37;;
46589;SDS011;32313;48.722;9.362;2022-11-20T08:31:49;5.60;;;5.10;;
46589;SDS011;32313;48.722;9.362;2022-11-20T08:34:15;6.00;;;5.57;;
46589;SDS011;32313;48.722;9.362;2022-11-20T08:36:40;6.07;;;5.57;;
46589;SDS011;32313;48.722;9.362;2022-11-20T08:39:06;5.57;;;5.17;;
46589;SDS011;32313;48.722;9.362;2022-11-20T08:41:32;5.90;;;5.50;;
46589;SDS011;32313;48.722;9.362;2022-11-20T08:43:59;5.27;;;4.87;;
46589;SDS011;32313;48.722;9.362;2022-11-20T08:46:28;5.20;;;4.83;;
46589;SDS011;32313;48.722;9.362;2022-11-20T08:49:04;5.80;;;5.30;;
46589;SDS011;32313;48.722;9.362;2022-11-20T08:51:31;5.50;;;5.10;;
46589;SDS011;32313;48.722;9.362;2022-11-20T08:53:57;5.53;;;5.23;;
46589;SDS011;32313;48.722;9.362;2022-11-20T08:56:22;6.00;;;5.60;;
46589;SDS011;32313;48.722;9.362;2022-11-20T08:58:50;5.63;;;5.33;;
46589;SDS011;32313;48.722;9.362;2022-11-20T09:01:17;5.63;;;5.33;;
46589;SDS011;32313;48.722;9.362;2022-11-20T09:03:43;20.73;;;14.00;;
46589;SDS011;32313;48.722;9.362;2022-11-20T09:06:09;10.70;;;8.83;;
46589;SDS011;32313;48.722;9.362;2022-11-20T09:08:35;7.37;;;6.60;;
46589;SDS011;32313;48.722;9.362;2022-11-20T09:11:03;6.47;;;6.00;;
46589;SDS011;32313;48.722;9.362;2022-11-20T09:13:30;7.80;;;7.10;;
46589;SDS011;32313;48.722;9.362;2022-11-20T09:15:58;7.83;;;7.13;;
46589;SDS011;32313;48.722;9.362;2022-11-20T09:18:24;9.17;;;8.27;;
46589;SDS011;32313;48.722;9.362;2022-11-20T09:20:51;6.97;;;6.37;;
46589;SDS011;32313;48.722;9.362;2022-11-20T09:23:20;8.40;;;7.63;;
46589;SDS011;32313;48.722;9.362;2022-11-20T09:25:46;11.80;;;9.30;;
46589;SDS011;32313;48.722;9.362;2022-11-20T09:28:12;10.90;;;8.43;;
46589;SDS011;32313;48.722;9.362;2022-11-20T09:30:38;8.53;;;7.60;;
46589;SDS011;32313;48.722;9.362;2022-11-20T09:33:04;6.10;;;5.60;;
46589;SDS011;32313;48.722;9.362;2022-11-20T09:35:31;9.03;;;8.13;;
46589;SDS011;32313;48.722;9.362;2022-11-20T09:37:57;6.73;;;6.23;;
46589;SDS011;32313;48.722;9.362;2022-11-20T09:40:24;8.60;;;7.83;;
46589;SDS011;32313;48.722;9.362;2022-11-20T09:42:59;8.37;;;7.57;;
46589;SDS011;32313;48.722;9.362;2022-11-20T09:56:40;8.33;;;7.53;;
46589;SDS011;32313;48.722;9.362;2022-11-20T09:59:14;9.43;;;8.33;;
46589;SDS011;32313;48.722;9.362;2022-11-20T10:01:51;8.43;;;7.53;;
46589;SDS011;32313;48.722;9.362;2022-11-20T10:04:19;9.27;;;7.73;;
46589;SDS011;32313;48.722;9.362;2022-11-20T10:07:06;12.50;;;6.87;;
46589;SDS011;32313;48.722;9.362;2022-11-20T10:09:40;7.43;;;6.63;;
46589;SDS011;32313;48.722;9.362;2022-11-20T10:12:17;10.80;;;9.50;;
46589;SDS011;32313;48.722;9.362;2022-11-20T10:14:57;5.27;;;4.87;;
46589;SDS011;32313;48.722;9.362;2022-11-20T10:20:02;6.27;;;5.77;;
46589;SDS011;32313;48.722;9.362;2022-11-20T10:25:14;5.90;;;5.50;;
46589;SDS011;32313;48.722;9.362;2022-11-20T10:30:20;4.13;;;3.93;;
46589;SDS011;32313;48.722;9.362;2022-11-20T10:33:00;4.70;;;4.50;;
46589;SDS011;32313;48.722;9.362;2022-11-20T10:35:33;4.03;;;3.80;;
46589;SDS011;32313;48.722;9.362;2022-11-20T10:38:08;4.23;;;4.03;;
46589;SDS011;32313;48.722;9.362;2022-11-20T10:40:59;4.23;;;4.00;;
46589;SDS011;32313;48.722;9.362;2022-11-20T10:43:46;4.07;;;3.87;;
46589;SDS011;32313;48.722;9.362;2022-11-20T10:46:17;3.73;;;3.53;;
46589;SDS011;32313;48.722;9.362;2022-11-20T10:48:47;3.93;;;3.73;;
46589;SDS011;32313;48.722;9.362;2022-11-20T10:57:12;4.27;;;3.97;;
46589;SDS011;32313;48.722;9.362;2022-11-20T11:00:04;4.00;;;3.80;;
46589;SDS011;32313;48.722;9.362;2022-11-20T11:05:53;3.70;;;3.50;;
46589;SDS011;32313;48.722;9.362;2022-11-20T11:08:04;4.00;;;3.80;;
46589;SDS011;32313;48.722;9.362;2022-11-20T11:13:24;4.13;;;3.83;;
46589;SDS011;32313;48.722;9.362;2022-11-20T11:15:51;4.70;;;4.50;;
46589;SDS011;32313;48.722;9.362;2022-11-20T11:20:53;4.67;;;4.40;;
46589;SDS011;32313;48.722;9.362;2022-11-20T11:23:37;5.03;;;4.73;;
46589;SDS011;32313;48.722;9.362;2022-11-20T11:26:23;4.50;;;4.27;;
46589;SDS011;32313;48.722;9.362;2022-11-20T11:28:56;5.13;;;4.83;;
46589;SDS011;32313;48.722;9.362;2022-11-20T11:31:26;4.60;;;4.23;;
46589;SDS011;32313;48.722;9.362;2022-11-20T11:36:40;4.27;;;3.97;;
46589;SDS011;32313;48.722;9.362;2022-11-20T11:39:09;4.50;;;4.30;;
46589;SDS011;32313;48.722;9.362;2022-11-20T11:41:39;5.13;;;4.87;;
46589;SDS011;32313;48.722;9.362;2022-11-20T11:44:17;4.87;;;4.57;;
46589;SDS011;32313;48.722;9.362;2022-11-20T11:52:40;4.93;;;4.60;;
46589;SDS011;32313;48.722;9.362;2022-11-20T11:58:44;4.73;;;4.43;;
46589;SDS011;32313;48.722;9.362;2022-11-20T12:04:12;4.03;;;3.83;;
46589;SDS011;32313;48.722;9.362;2022-11-20T12:06:50;3.90;;;3.60;;
46589;SDS011;32313;48.722;9.362;2022-11-20T12:09:23;4.40;;;4.10;;
46589;SDS011;32313;48.722;9.362;2022-11-20T12:11:55;4.33;;;4.03;;
46589;SDS011;32313;48.722;9.362;2022-11-20T12:14:40;3.33;;;3.20;;
46589;SDS011;32313;48.722;9.362;2022-11-20T12:17:10;3.63;;;3.33;;
46589;SDS011;32313;48.722;9.362;2022-11-20T12:19:38;3.40;;;3.20;;
46589;SDS011;32313;48.722;9.362;2022-11-20T12:36:40;4.03;;;3.73;;
46589;SDS011;32313;48.722;9.362;2022-11-20T12:44:57;3.87;;;3.57;;
46589;SDS011;32313;48.722;9.362;2022-11-20T12:50:37;7.30;;;3.43;;
46589;SDS011;32313;48.722;9.362;2022-11-20T12:56:09;3.83;;;3.53;;
46589;SDS011;32313;48.722;9.362;2022-11-20T12:58:59;3.97;;;3.60;;
46589;SDS011;32313;48.722;9.362;2022-11-20T13:06:46;3.20;;;2.97;;
46589;SDS011;32313;48.722;9.362;2022-11-20T13:09:13;4.23;;;3.93;;
46589;SDS011;32313;48.722;9.362;2022-11-20T13:19:38;3.00;;;2.70;;
46589;SDS011;32313;48.722;9.362;2022-11-20T13:22:04;2.90;;;2.70;;
46589;SDS011;32313;48.722;9.362;2022-11-20T13:24:30;2.63;;;2.50;;
46589;SDS011;32313;48.722;9.362;2022-11-20T13:29:37;2.87;;;2.67;;
46589;SDS011;32313;48.722;9.362;2022-11-20T13:34:37;2.83;;;2.57;;
46589;SDS011;32313;48.722;9.362;2022-11-20T13:37:02;2.97;;;2.77;;
46589;SDS011;32313;48.722;9.362;2022-11-20T13:39:34;3.00;;;2.70;;
46589;SDS011;32313;48.722;9.362;2022-11-20T13:42:23;3.20;;;2.90;;
46589;SDS011;32313;48.722;9.362;2022-11-20T13:44:55;3.70;;;3.37;;
46589;SDS011;32313;48.722;9.362;2022-11-20T13:47:27;3.20;;;2.90;;
46589;SDS011;32313;48.722;9.362;2022-11-20T13:49:55;3.20;;;2.90;;
46589;SDS011;32313;48.722;9.362;2022-11-20T13:55:36;2.73;;;2.50;;
46589;SDS011;32313;48.722;9.362;2022-11-20T14:00:48;3.23;;;2.93;;
46589;SDS011;32313;48.722;9.362;2022-11-20T14:03:56;2.60;;;2.50;;
46589;SDS011;32313;48.722;9.362;2022-11-20T14:06:29;4.00;;;3.07;;
46589;SDS011;32313;48.722;9.362;2022-11-20T14:08:57;3.37;;;3.00;;
46589;SDS011;32313;48.722;9.362;2022-11-20T14:11:28;3.10;;;2.90;;
46589;SDS011;32313;48.722;9.362;2022-11-20T14:13:56;3.47;;;3.17;;
46589;SDS011;32313;48.722;9.362;2022-11-20T14:16:26;3.33;;;2.63;;
46589;SDS011;32313;48.722;9.362;2022-11-20T14:18:54;2.77;;;2.50;;
46589;SDS011;32313;48.722;9.362;2022-11-20T14:21:21;2.57;;;2.30;;
46589;SDS011;32313;48.722;9.362;2022-11-20T14:23:48;2.87;;;2.50;;
46589;SDS011;32313;48.722;9.362;2022-11-20T14:26:17;2.80;;;2.20;;
46589;SDS011;32313;48.722;9.362;2022-11-20T14:28:47;3.00;;;2.27;;
46589;SDS011;32313;48.722;9.362;2022-11-20T14:31:21;4.60;;;2.73;;
46589;SDS011;32313;48.722;9.362;2022-11-20T14:33:49;3.43;;;3.13;;
46589;SDS011;32313;48.722;9.362;2022-11-20T14:36:20;3.13;;;2.93;;
46589;SDS011;32313;48.722;9.362;2022-11-20T14:38:48;3.43;;;2.97;;
46589;SDS011;32313;48.722;9.362;2022-11-20T14:41:22;3.17;;;2.90;;
46589;SDS011;32313;48.722;9.362;2022-11-20T14:43:57;3.00;;;2.80;;
46589;SDS011;32313;48.722;9.362;2022-11-20T14:46:24;3.57;;;3.37;;
46589;SDS011;32313;48.722;9.362;2022-11-20T14:48:52;5.20;;;3.77;;
46589;SDS011;32313;48.722;9.362;2022-11-20T14:51:29;4.17;;;3.87;;
46589;SDS011;32313;48.722;9.362;2022-11-20T14:54:07;5.30;;;3.73;;
46589;SDS011;32313;48.722;9.362;2022-11-20T14:56:34;4.47;;;4.10;;
46589;SDS011;32313;48.722;9.362;2022-11-20T14:59:00;4.20;;;3.90;;
46589;SDS011;32313;48.722;9.362;2022-11-20T15:01:27;3.90;;;3.60;;
46589;SDS011;32313;48.722;9.362;2022-11-20T15:03:59;4.87;;;4.47;;
46589;SDS011;32313;48.722;9.362;2022-11-20T15:06:26;4.47;;;4.07;;
46589;SDS011;32313;48.722;9.362;2022-11-20T15:08:52;4.30;;;4.00;;
46589;SDS011;32313;48.722;9.362;2022-11-20T15:11:19;4.50;;;4.20;;
46589;SDS011;32313;48.722;9.362;2022-11-20T15:13:50;3.90;;;3.70;;
46589;SDS011;32313;48.722;9.362;2022-11-20T15:16:19;4.47;;;4.10;;
46589;SDS011;32313;48.722;9.362;2022-11-20T15:18:47;4.57;;;4.27;;
46589;SDS011;32313;48.722;9.362;2022-11-20T15:21:17;4.40;;;4.10;;
46589;SDS011;32313;48.722;9.362;2022-11-20T15:23:44;4.83;;;4.53;;
46589;SDS011;32313;48.722;9.362;2022-11-20T15:26:10;4.27;;;3.97;;
46589;SDS011;32313;48.722;9.362;2022-11-20T15:28:43;4.97;;;4.60;;
46589;SDS011;32313;48.722;9.362;2022-11-20T15:31:13;4.27;;;3.97;;
46589;SDS011;32313;48.722;9.362;2022-11-20T15:33:40;5.57;;;4.83;;
46589;SDS011;32313;48.722;9.362;2022-11-20T15:36:07;4.10;;;3.90;;
46589;SDS011;32313;48.722;9.362;2022-11-20T15:38:33;4.53;;;4.33;;
46589;SDS011;32313;48.722;9.362;2022-11-20T15:40:59;4.77;;;4.37;;
46589;SDS011;32313;48.722;9.362;2022-11-20T15:43:25;4.53;;;4.30;;
46589;SDS011;32313;48.722;9.362;2022-11-20T15:45:51;4.93;;;4.53;;
46589;SDS011;32313;48.722;9.362;2022-11-20T15:53:37;4.87;;;4.47;;
46589;SDS011;32313;48.722;9.362;2022-11-20T15:56:05;4.80;;;4.40;;
46589;SDS011;32313;48.722;9.362;2022-11-20T15:58:31;4.90;;;4.60;;
46589;SDS011;32313;48.722;9.362;2022-11-20T16:00:57;4.83;;;4.50;;
46589;SDS011;32313;48.722;9.362;2022-11-20T16:03:23;6.20;;;5.77;;
46589;SDS011;32313;48.722;9.362;2022-11-20T16:05:49;5.40;;;5.00;;
46589;SDS011;32313;48.722;9.362;2022-11-20T16:08:15;5.83;;;5.53;;
46589;SDS011;32313;48.722;9.362;2022-11-20T16:10:40;6.53;;;6.03;;
46589;SDS011;32313;48.722;9.362;2022-11-20T16:13:13;6.30;;;5.90;;
46589;SDS011;32313;48.722;9.362;2022-11-20T16:16:01;7.43;;;6.73;;
46589;SDS011;32313;48.722;9.362;2022-11-20T16:18:30;9.13;;;8.23;;
46589;SDS011;32313;48.722;9.362;2022-11-20T16:20:56;18.40;;;14.67;;
46589;SDS011;32313;48.722;9.362;2022-11-20T16:23:22;17.03;;;14.10;;
46589;SDS011;32313;48.722;9.362;2022-11-20T16:25:49;22.30;;;18.07;;
46589;SDS011;32313;48.722;9.362;2022-11-20T16:28:15;17.57;;;14.83;;
46589;SDS011;32313;48.722;9.362;2022-11-20T16:30:41;14.93;;;12.60;;
46589;SDS011;32313;48.722;9.362;2022-11-20T16:33:11;17.40;;;14.37;;
46589;SDS011;32313;48.722;9.362;2022-11-20T16:35:38;15.90;;;14.20;;
46589;SDS011;32313;48.722;9.362;2022-11-20T16:38:03;13.70;;;12.30;;
46589;SDS011;32313;48.722;9.362;2022-11-20T16:40:29;26.17;;;19.43;;
46589;SDS011;32313;48.722;9.362;2022-11-20T16:42:55;19.87;;;15.00;;
46589;SDS011;32313;48.722;9.362;2022-11-20T16:45:22;36.53;;;24.63;;
46589;SDS011;32313;48.722;9.362;2022-11-20T16:47:48;29.63;;;20.70;;